createdAt,value
2022-10-17T00:04:30.367Z,100961.01
2022-10-17T00:09:32.852Z,100957.74
2022-10-17T00:14:35.681Z,100969.47
2022-10-17T00:19:38.100Z,100969.89
2022-10-17T00:24:40.662Z,100971.19
2022-10-17T00:29:43.250Z,100969.23
2022-10-17T00:34:46.494Z,100966.18
2022-10-17T00:39:48.910Z,100969.80
2022-10-17T00:45:02.516Z,100970.55
2022-10-17T00:50:06.703Z,100965.91
2022-10-17T00:55:14.864Z,100973.27
2022-10-17T01:00:19.011Z,100981.57
2022-10-17T01:05:21.560Z,100970.77
2022-10-17T01:10:30.108Z,100967.63
2022-10-17T01:15:56.186Z,100970.56
2022-10-17T01:21:17.240Z,100970.36
2022-10-17T01:26:38.559Z,100968.68
2022-10-17T01:31:46.754Z,100973.52
2022-10-17T01:36:57.747Z,100984.72
2022-10-17T01:42:11.390Z,100986.33
2022-10-17T01:47:19.344Z,100996.64
2022-10-17T01:52:29.351Z,101008.96
2022-10-17T01:57:52.864Z,101017.52
2022-10-17T02:03:00.020Z,101034.77
2022-10-17T02:08:03.381Z,101043.05
2022-10-17T02:13:24.379Z,101040.34
2022-10-17T02:18:51.496Z,101043.91
2022-10-17T02:23:59.928Z,101045.69
2022-10-17T02:29:13.574Z,101049.70
2022-10-17T02:34:32.008Z,101059.86
2022-10-17T02:39:36.928Z,101057.23
2022-10-17T02:44:43.503Z,101053.02
2022-10-17T02:49:51.445Z,101058.80
2022-10-17T02:55:12.857Z,101061.21
2022-10-17T03:00:17.489Z,101071.55
2022-10-17T03:05:25.942Z,101082.33
2022-10-17T03:10:28.344Z,101086.42
2022-10-17T03:15:30.766Z,101089.56
2022-10-17T03:20:33.671Z,101093.00
2022-10-17T03:25:36.105Z,101102.81
2022-10-17T03:30:39.341Z,101095.34
2022-10-17T03:35:41.806Z,101100.40
2022-10-17T03:40:44.276Z,101094.36
2022-10-17T03:45:46.761Z,101100.83
2022-10-17T03:50:50.807Z,101110.86
2022-10-17T03:55:53.224Z,101116.83
2022-10-17T04:00:55.720Z,101120.16
2022-10-17T04:06:00.131Z,101116.80
2022-10-17T04:11:04.948Z,101117.90
2022-10-17T04:16:11.744Z,101121.73
2022-10-17T04:21:14.339Z,101131.84
2022-10-17T04:26:16.785Z,101144.29
2022-10-17T04:31:19.662Z,101143.41
2022-10-17T04:36:23.301Z,101140.55
2022-10-17T04:41:25.980Z,101134.11
2022-10-17T04:46:28.420Z,101140.21
2022-10-17T04:51:30.955Z,101148.45
2022-10-17T04:56:33.401Z,101163.75
2022-10-17T05:01:37.574Z,101163.97
2022-10-17T05:06:40.153Z,101164.13
2022-10-17T05:11:43.358Z,101166.79
2022-10-17T05:16:45.754Z,101156.66
2022-10-17T05:21:48.176Z,101165.55
2022-10-17T05:26:51.936Z,101168.98
2022-10-17T05:31:54.543Z,101166.36
2022-10-17T05:36:57.593Z,101165.57
2022-10-17T05:42:00.623Z,101172.19
2022-10-17T05:47:03.027Z,101171.45
2022-10-17T05:52:06.430Z,101176.17
2022-10-17T05:57:08.924Z,101180.25
2022-10-17T06:02:13.131Z,101183.16
2022-10-17T06:07:16.417Z,101196.66
2022-10-17T06:12:19.139Z,101211.05
2022-10-17T06:17:21.627Z,101211.38
2022-10-17T06:22:24.063Z,101218.70
2022-10-17T06:27:26.550Z,101221.33
2022-10-17T06:32:30.169Z,101214.80
2022-10-17T06:37:36.528Z,101217.29
2022-10-17T06:42:39.766Z,101217.58
2022-10-17T06:47:42.346Z,101217.14
2022-10-17T06:52:44.858Z,101230.36
2022-10-17T06:57:48.832Z,101244.61
2022-10-17T07:02:51.537Z,101246.35
2022-10-17T07:07:53.925Z,101250.18
2022-10-17T07:12:56.386Z,101263.69
2022-10-17T07:17:58.843Z,101263.25
2022-10-17T07:23:01.676Z,101266.23
2022-10-17T07:28:04.395Z,101266.80
2022-10-17T07:33:07.109Z,101269.83
2022-10-17T07:38:09.618Z,101268.50
2022-10-17T07:43:12.013Z,101262.02
2022-10-17T07:48:14.460Z,101265.14
2022-10-17T07:53:17.884Z,101269.85
2022-10-17T07:58:20.637Z,101272.80
2022-10-17T08:03:23.187Z,101276.88
2022-10-17T08:08:26.778Z,101288.86
2022-10-17T08:13:33.306Z,101282.19
2022-10-17T08:18:36.823Z,101288.54
2022-10-17T08:23:39.717Z,101282.85
2022-10-17T08:28:42.609Z,101276.20
2022-10-17T08:33:46.041Z,101266.33
2022-10-17T08:38:52.560Z,101268.90
2022-10-17T08:44:17.280Z,101277.14
2022-10-17T08:49:32.030Z,101284.35
2022-10-17T08:54:45.474Z,101275.00
2022-10-17T08:59:53.307Z,101266.23
2022-10-17T09:05:18.069Z,101266.39
2022-10-17T09:10:46.443Z,101268.86
2022-10-17T09:16:15.147Z,101260.07
2022-10-17T09:21:23.145Z,101264.87
2022-10-17T09:26:28.384Z,101264.52
2022-10-17T09:31:40.767Z,101249.40
2022-10-17T09:36:44.050Z,101246.70
2022-10-17T09:41:53.705Z,101253.06
2022-10-17T09:47:24.775Z,101254.45
2022-10-17T09:52:33.134Z,101250.31
2022-10-17T09:57:58.461Z,101253.95
2022-10-17T10:03:09.434Z,101255.84
2022-10-17T10:08:18.746Z,101249.79
2022-10-17T10:13:21.346Z,101242.39
2022-10-17T10:18:26.640Z,101236.63
2022-10-17T10:23:29.079Z,101225.17
2022-10-17T10:28:35.256Z,101223.39
2022-10-17T10:33:45.881Z,101216.54
2022-10-17T10:38:55.410Z,101214.65
2022-10-17T10:43:57.902Z,101214.98
2022-10-17T10:49:01.869Z,101208.64
2022-10-17T10:54:29.365Z,101207.11
2022-10-17T10:59:45.555Z,101212.05
2022-10-17T11:05:25.673Z,101211.46
2022-10-17T11:10:39.272Z,101204.38
2022-10-17T11:15:53.728Z,101203.35
2022-10-17T11:21:10.422Z,101201.45
2022-10-17T11:26:35.574Z,101197.49
2022-10-17T11:31:47.934Z,101191.77
2022-10-17T11:36:54.629Z,101192.31
2022-10-17T11:42:06.867Z,101181.33
2022-10-17T11:47:31.185Z,101172.52
2022-10-17T11:52:55.819Z,101167.13
2022-10-17T11:58:05.169Z,101156.79
2022-10-17T12:03:23.040Z,101152.21
2022-10-17T12:08:31.322Z,101154.83
2022-10-17T12:13:35.101Z,101153.02
2022-10-17T12:18:37.743Z,101147.73
2022-10-17T12:23:41.394Z,101142.59
2022-10-17T12:28:45.263Z,101138.77
2022-10-17T12:34:15.649Z,101134.05
2022-10-17T12:39:17.975Z,101132.00
2022-10-17T12:44:23.855Z,101133.64
2022-10-17T12:49:46.350Z,101129.19
2022-10-17T12:55:00.591Z,101129.30
2022-10-17T13:00:21.979Z,101128.02
2022-10-17T13:05:29.470Z,101126.48
2022-10-17T13:10:41.964Z,101128.14
2022-10-17T13:15:51.050Z,101127.83
2022-10-17T13:20:59.268Z,101130.34
2022-10-17T13:26:16.152Z,101129.20
2022-10-17T13:31:39.299Z,101121.27
2022-10-17T13:36:47.829Z,101123.25
2022-10-17T13:41:54.094Z,101120.33
2022-10-17T13:46:56.841Z,101100.69
2022-10-17T13:52:02.650Z,101086.72
2022-10-17T13:57:16.347Z,101067.96
2022-10-17T14:02:45.192Z,101070.83
2022-10-17T14:08:10.842Z,101066.70
2022-10-17T14:13:36.132Z,101054.85
2022-10-17T14:18:38.865Z,101049.48
2022-10-17T14:23:44.218Z,101045.86
2022-10-17T14:29:03.303Z,101044.63
2022-10-17T14:34:05.898Z,101050.27
2022-10-17T14:39:20.180Z,101049.39
2022-10-17T14:44:34.917Z,101050.50
2022-10-17T14:49:39.417Z,101052.27
2022-10-17T14:54:44.370Z,101050.70
2022-10-17T14:59:55.492Z,101048.48
2022-10-17T15:04:58.263Z,101040.27
2022-10-17T15:10:00.848Z,101040.73
2022-10-17T15:15:04.953Z,101046.84
2022-10-17T15:20:19.152Z,101043.66
2022-10-17T15:25:21.735Z,101034.67
2022-10-17T15:30:30.282Z,101035.33
2022-10-17T15:35:32.961Z,101038.03
2022-10-17T15:40:35.937Z,101039.91
2022-10-17T15:45:38.724Z,101041.63
2022-10-17T15:50:41.156Z,101042.63
2022-10-17T15:55:43.698Z,101042.52
2022-10-17T16:00:47.249Z,101041.70
2022-10-17T16:05:49.700Z,101035.84
2022-10-17T16:10:52.958Z,101037.55
2022-10-17T16:15:55.690Z,101035.67
2022-10-17T16:20:58.791Z,101032.03
2022-10-17T16:26:01.172Z,101025.98
2022-10-17T16:31:03.635Z,101027.84
2022-10-17T16:36:07.024Z,101025.10
2022-10-17T16:41:29.211Z,101018.63
2022-10-17T16:46:35.861Z,101016.25
2022-10-17T16:51:38.322Z,101011.98
2022-10-17T16:56:42.960Z,101005.48
2022-10-17T17:01:45.709Z,101001.85
2022-10-17T17:06:48.851Z,100996.89
2022-10-17T17:11:52.027Z,100993.36
2022-10-17T17:16:54.476Z,100990.14
2022-10-17T17:21:56.935Z,100984.23
2022-10-17T17:26:59.826Z,100980.83
2022-10-17T17:32:02.641Z,100974.65
2022-10-17T17:37:05.376Z,100980.16
2022-10-17T17:42:08.038Z,100978.11
2022-10-17T17:47:10.505Z,100976.41
2022-10-17T17:52:13.026Z,100975.44
2022-10-17T17:57:16.780Z,100971.75
2022-10-17T18:02:19.522Z,100970.83
2022-10-17T18:07:22.541Z,100965.98
2022-10-17T18:12:25.104Z,100956.66
2022-10-17T18:17:29.377Z,100951.32
2022-10-17T18:22:32.329Z,100954.64
2022-10-17T18:27:35.136Z,100952.34
2022-10-17T18:32:37.590Z,100956.11
2022-10-17T18:42:43.251Z,100948.13
2022-10-17T18:47:52.406Z,100949.25
2022-10-17T18:52:54.886Z,100942.66
2022-10-17T18:57:57.465Z,100939.75
2022-10-17T19:03:00.170Z,100941.82
2022-10-17T19:08:02.940Z,100931.20
2022-10-17T19:13:05.438Z,100920.80
2022-10-17T19:18:07.883Z,100915.90
2022-10-17T19:23:10.295Z,100910.99
2022-10-17T19:28:12.750Z,100901.43
2022-10-17T19:33:15.184Z,100899.20
2022-10-17T19:38:17.606Z,100899.17
2022-10-17T19:43:21.265Z,100903.63
2022-10-17T19:48:24.611Z,100908.13
2022-10-17T19:53:29.343Z,100905.20
2022-10-17T19:58:34.151Z,100901.13
2022-10-17T20:03:37.676Z,100893.38
2022-10-17T20:08:41.831Z,100890.66
2022-10-17T20:13:45.269Z,100891.36
2022-10-17T20:18:50.887Z,100884.92
2022-10-17T20:23:54.833Z,100882.15
2022-10-17T20:28:57.885Z,100879.01
2022-10-17T20:34:00.561Z,100880.60
2022-10-17T20:39:03.965Z,100872.23
2022-10-17T20:44:07.070Z,100875.48
2022-10-17T20:49:14.646Z,100873.92
2022-10-17T20:54:17.063Z,100877.15
2022-10-17T20:59:19.911Z,100873.20
2022-10-17T21:09:52.179Z,100874.96
2022-10-17T21:14:58.373Z,100876.35
2022-10-17T21:20:01.048Z,100873.34
2022-10-17T21:25:03.876Z,100870.53
2022-10-17T21:35:11.050Z,100872.54
2022-10-17T21:40:13.461Z,100871.39
2022-10-17T21:45:25.361Z,100868.98
2022-10-17T21:50:28.423Z,100870.73
2022-10-17T21:55:30.824Z,100868.70
2022-10-17T22:00:33.291Z,100865.23
2022-10-17T22:05:35.732Z,100859.84
2022-10-17T22:10:39.641Z,100858.06
2022-10-17T22:15:42.036Z,100859.58
2022-10-17T22:20:44.507Z,100858.46
2022-10-17T22:26:06.083Z,100853.41
2022-10-17T22:31:08.984Z,100851.36
2022-10-17T22:36:11.409Z,100852.05
2022-10-17T22:41:13.791Z,100846.94
2022-10-17T22:46:16.919Z,100847.46
2022-10-17T22:51:20.108Z,100851.48
2022-10-17T22:56:23.493Z,100848.89
2022-10-17T23:01:26.756Z,100849.18
2022-10-17T23:06:29.249Z,100844.84
2022-10-17T23:11:31.700Z,100843.44
2022-10-17T23:16:34.173Z,100842.63
2022-10-17T23:21:36.648Z,100843.63
2022-10-17T23:26:39.330Z,100843.58
2022-10-17T23:31:41.766Z,100842.42
2022-10-17T23:36:44.361Z,100839.58
2022-10-17T23:41:47.101Z,100836.80
2022-10-17T23:46:49.510Z,100832.25
2022-10-17T23:51:51.974Z,100829.98
2022-10-17T23:56:54.392Z,100829.46
